createdAt,value
2022-08-19T00:02:26.847Z,7.57
2022-08-19T00:05:29.319Z,6.78
2022-08-19T00:08:32.371Z,6.80
2022-08-19T00:11:36.938Z,7.45
2022-08-19T00:14:40.149Z,7.00
2022-08-19T00:17:44.640Z,6.70
2022-08-19T00:20:46.776Z,6.85
2022-08-19T00:23:49.201Z,7.00
2022-08-19T00:26:52.303Z,7.15
2022-08-19T00:29:54.889Z,6.40
2022-08-19T00:32:57.825Z,6.62
2022-08-19T00:36:07.224Z,6.60
2022-08-19T00:39:09.645Z,6.60
2022-08-19T00:42:15.041Z,6.90
2022-08-19T00:45:23.047Z,7.28
2022-08-19T00:48:25.498Z,6.75
2022-08-19T00:51:30.879Z,7.07
2022-08-19T00:54:34.098Z,7.00
2022-08-19T00:57:41.138Z,6.50
2022-08-19T01:00:43.900Z,6.60
2022-08-19T01:03:58.233Z,7.07
2022-08-19T01:07:02.722Z,6.62
2022-08-19T01:10:07.300Z,7.60
2022-08-19T01:13:10.897Z,6.47
2022-08-19T01:16:13.427Z,6.60
2022-08-19T01:19:43.700Z,7.20
2022-08-19T01:22:59.179Z,7.10
2022-08-19T01:26:01.906Z,7.12
2022-08-19T01:29:05.195Z,8.10
2022-08-19T01:32:10.129Z,6.97
2022-08-19T01:35:33.202Z,7.37
2022-08-19T01:38:44.418Z,7.72
2022-08-19T01:41:48.125Z,7.25
2022-08-19T01:44:51.129Z,6.87
2022-08-19T01:48:02.234Z,7.85
2022-08-19T01:51:05.707Z,7.30
2022-08-19T01:54:10.386Z,7.05
2022-08-19T01:57:15.348Z,6.93
2022-08-19T02:00:19.480Z,7.03
2022-08-19T02:03:24.007Z,6.78
2022-08-19T02:06:26.848Z,7.07
2022-08-19T02:09:29.561Z,7.07
2022-08-19T02:12:31.718Z,7.22
2022-08-19T02:15:35.190Z,6.53
2022-08-19T02:18:37.359Z,7.37
2022-08-19T02:21:39.915Z,7.10
2022-08-19T02:24:42.334Z,7.57
2022-08-19T02:27:44.821Z,6.97
2022-08-19T02:30:48.797Z,6.53
2022-08-19T02:33:51.572Z,7.30
2022-08-19T02:36:53.740Z,7.07
2022-08-19T02:39:56.260Z,6.78
2022-08-19T02:42:58.433Z,6.97
2022-08-19T02:46:01.372Z,6.70
2022-08-19T02:49:08.174Z,7.03
2022-08-19T02:52:12.089Z,7.23
2022-08-19T02:55:14.332Z,7.50
2022-08-19T02:58:17.278Z,6.78
2022-08-19T03:01:30.804Z,7.53
2022-08-19T03:04:33.359Z,6.87
2022-08-19T03:07:35.543Z,7.60
2022-08-19T03:10:44.788Z,7.62
2022-08-19T03:13:47.627Z,6.82
2022-08-19T03:16:52.128Z,7.72
2022-08-19T03:19:54.764Z,7.18
2022-08-19T03:22:57.228Z,6.87
2022-08-19T03:26:15.940Z,8.10
2022-08-19T03:29:30.419Z,6.70
2022-08-19T03:32:33.465Z,7.45
2022-08-19T03:35:37.830Z,6.93
2022-08-19T03:38:44.972Z,7.62
2022-08-19T03:42:32.651Z,6.53
2022-08-19T03:45:13.340Z,7.05
2022-08-19T03:48:17.643Z,7.78
2022-08-19T03:51:31.351Z,6.97
2022-08-19T03:54:34.094Z,6.75
2022-08-19T03:57:36.301Z,7.37
2022-08-19T04:00:38.736Z,7.25
2022-08-19T04:03:41.422Z,6.90
2022-08-19T04:06:44.639Z,7.10
2022-08-19T04:09:47.097Z,7.65
2022-08-19T04:12:49.265Z,7.45
2022-08-19T04:15:52.027Z,7.45
2022-08-19T04:18:54.161Z,8.15
2022-08-19T04:21:56.769Z,9.88
2022-08-19T04:24:58.901Z,6.87
2022-08-19T04:28:01.372Z,7.82
2022-08-19T04:31:03.543Z,7.25
2022-08-19T04:34:08.759Z,6.80
2022-08-19T04:37:12.735Z,7.10
2022-08-19T04:40:34.148Z,7.40
2022-08-19T04:43:38.066Z,7.68
2022-08-19T04:46:51.161Z,6.87
2022-08-19T04:49:54.056Z,6.87
2022-08-19T04:52:56.813Z,7.70
2022-08-19T04:56:00.421Z,7.97
2022-08-19T04:59:05.694Z,7.10
2022-08-19T05:02:09.721Z,7.10
2022-08-19T05:05:12.265Z,7.28
2022-08-19T05:08:31.529Z,7.65
2022-08-19T05:11:39.579Z,6.65
2022-08-19T05:14:41.709Z,7.25
2022-08-19T05:18:04.094Z,6.60
2022-08-19T05:21:27.946Z,6.90
2022-08-19T05:24:35.011Z,6.37
2022-08-19T05:27:37.152Z,6.87
2022-08-19T05:30:47.318Z,6.22
2022-08-19T05:33:51.423Z,6.28
2022-08-19T05:37:00.134Z,5.80
2022-08-19T05:40:03.027Z,6.07
2022-08-19T05:43:08.481Z,5.95
2022-08-19T05:46:27.735Z,6.50
2022-08-19T05:49:34.207Z,6.50
2022-08-19T05:52:39.194Z,5.97
2022-08-19T05:55:46.396Z,5.68
2022-08-19T05:58:48.631Z,5.50
2022-08-19T06:01:59.250Z,5.25
2022-08-19T06:05:11.327Z,6.47
2022-08-19T06:08:13.799Z,5.85
2022-08-19T06:11:34.222Z,5.97
2022-08-19T06:14:41.795Z,6.03
2022-08-19T06:17:47.018Z,5.12
2022-08-19T06:20:56.001Z,5.72
2022-08-19T06:24:00.367Z,5.82
2022-08-19T06:27:04.243Z,5.20
2022-08-19T06:30:07.695Z,5.07
2022-08-19T06:33:17.203Z,4.87
2022-08-19T06:36:30.681Z,5.00
2022-08-19T06:39:39.602Z,5.43
2022-08-19T06:42:54.997Z,5.03
2022-08-19T06:45:58.151Z,5.07
2022-08-19T06:49:01.682Z,4.93
2022-08-19T06:52:05.026Z,4.80
2022-08-19T06:55:08.291Z,5.07
2022-08-19T06:58:10.568Z,4.87
2022-08-19T07:01:13.527Z,4.70
2022-08-19T07:04:19.180Z,4.62
2022-08-19T07:07:23.157Z,4.80
2022-08-19T07:10:26.231Z,4.80
2022-08-19T07:13:28.724Z,4.93
2022-08-19T07:16:30.935Z,4.30
2022-08-19T07:19:34.708Z,4.62
2022-08-19T07:22:38.534Z,4.87
2022-08-19T07:25:41.277Z,4.82
2022-08-19T07:28:46.086Z,4.30
2022-08-19T07:31:56.940Z,4.90
2022-08-19T07:35:01.537Z,4.30
2022-08-19T07:38:04.762Z,4.83
2022-08-19T07:41:08.468Z,4.70
2022-08-19T07:44:13.475Z,4.18
2022-08-19T07:47:49.560Z,4.25
2022-08-19T07:50:39.534Z,4.45
2022-08-19T07:53:42.409Z,4.50
2022-08-19T07:56:46.043Z,4.82
2022-08-19T07:59:48.554Z,4.57
2022-08-19T08:02:51.428Z,4.68
2022-08-19T08:06:12.705Z,4.62
2022-08-19T08:09:27.142Z,4.43
2022-08-19T08:12:35.506Z,5.15
2022-08-19T08:15:43.347Z,5.20
2022-08-19T08:18:50.610Z,4.45
2022-08-19T08:21:57.946Z,4.68
2022-08-19T08:25:11.924Z,5.03
2022-08-19T08:28:18.516Z,4.73
2022-08-19T08:31:21.531Z,4.62
2022-08-19T08:34:23.896Z,5.00
2022-08-19T08:37:26.637Z,4.60
2022-08-19T08:40:35.555Z,4.82
2022-08-19T08:43:43.916Z,4.68
2022-08-19T08:46:52.705Z,3.85
2022-08-19T08:50:01.385Z,4.30
2022-08-19T08:53:06.577Z,4.22
2022-08-19T08:56:20.419Z,4.67
2022-08-19T08:59:27.280Z,4.95
2022-08-19T09:02:30.723Z,4.50
2022-08-19T10:23:18.106Z,4.80
2022-08-19T10:26:23.917Z,4.15
2022-08-19T10:29:33.567Z,4.50
2022-08-19T10:32:36.426Z,4.25
2022-08-19T10:35:57.129Z,4.75
2022-08-19T10:39:03.739Z,4.20
2022-08-19T10:42:08.468Z,4.30
2022-08-19T10:45:11.792Z,4.18
2022-08-19T10:48:15.723Z,4.22
2022-08-19T10:51:45.823Z,4.55
2022-08-19T10:55:08.950Z,3.95
2022-08-19T10:58:17.784Z,3.87
2022-08-19T11:01:21.376Z,4.47
2022-08-19T11:04:28.905Z,3.97
2022-08-19T11:07:32.107Z,4.00
2022-08-19T11:10:34.631Z,4.05
2022-08-19T11:13:41.533Z,4.78
2022-08-19T11:16:44.115Z,4.47
2022-08-19T11:19:47.864Z,3.92
2022-08-19T11:22:54.440Z,4.10
2022-08-19T11:25:57.943Z,4.65
2022-08-19T11:29:01.359Z,5.12
2022-08-19T11:32:11.870Z,5.28
2022-08-19T11:35:17.112Z,4.72
2022-08-19T11:38:19.440Z,5.03
2022-08-19T11:41:24.724Z,4.35
2022-08-19T11:44:28.711Z,4.95
2022-08-19T11:47:31.692Z,5.47
2022-08-19T11:50:33.890Z,7.72
2022-08-19T11:53:39.355Z,6.47
2022-08-19T11:56:41.708Z,7.25
2022-08-19T11:59:50.279Z,6.00
2022-08-19T12:02:52.435Z,7.12
2022-08-19T12:05:55.620Z,8.27
2022-08-19T12:09:03.101Z,8.30
2022-08-19T12:12:06.749Z,7.55
2022-08-19T12:15:12.323Z,7.28
2022-08-19T12:18:15.491Z,6.70
2022-08-19T12:21:27.287Z,6.55
2022-08-19T12:24:33.497Z,6.37
2022-08-19T12:27:40.707Z,7.30
2022-08-19T12:30:45.019Z,7.22
2022-08-19T12:33:48.024Z,6.25
2022-08-19T12:36:50.775Z,7.20
2022-08-19T12:39:53.668Z,6.80
2022-08-19T12:42:56.497Z,7.55
2022-08-19T12:45:58.621Z,7.55
2022-08-19T12:49:01.057Z,8.27
2022-08-19T12:52:09.974Z,8.25
2022-08-19T12:55:13.055Z,8.73
2022-08-19T12:58:15.370Z,8.70
2022-08-19T13:01:21.981Z,9.68
2022-08-19T13:04:25.222Z,9.10
2022-08-19T13:07:27.669Z,8.65
2022-08-19T13:10:35.687Z,5.45
2022-08-19T13:13:41.736Z,4.50
2022-08-19T13:16:44.121Z,3.73
2022-08-19T13:19:49.352Z,4.20
2022-08-19T13:22:54.566Z,3.45
2022-08-19T13:25:58.923Z,4.00
2022-08-19T13:29:19.926Z,3.37
2022-08-19T13:32:40.912Z,3.72
2022-08-19T13:35:51.696Z,3.50
2022-08-19T13:38:54.736Z,4.18
2022-08-19T13:41:57.157Z,3.33
2022-08-19T13:45:01.701Z,3.50
2022-08-19T13:48:09.468Z,3.53
2022-08-19T13:51:12.075Z,3.20
2022-08-19T13:54:14.252Z,4.32
2022-08-19T13:57:16.677Z,4.10
2022-08-19T14:00:20.923Z,4.62
2022-08-19T14:03:24.505Z,3.58
2022-08-19T14:06:26.734Z,3.53
2022-08-19T14:09:29.192Z,3.85
2022-08-19T14:12:32.986Z,4.10
2022-08-19T14:15:35.405Z,3.62
2022-08-19T14:18:38.436Z,3.40
2022-08-19T14:21:42.037Z,3.42
2022-08-19T14:24:47.902Z,3.35
2022-08-19T14:27:51.748Z,3.75
2022-08-19T14:30:55.286Z,3.05
2022-08-19T14:33:59.163Z,3.53
2022-08-19T14:37:01.378Z,3.65
2022-08-19T14:40:08.136Z,3.70
2022-08-19T14:43:10.447Z,3.35
2022-08-19T14:46:17.255Z,2.53
2022-08-19T14:52:22.590Z,3.35
2022-08-19T14:55:24.710Z,2.65
2022-08-19T14:58:29.639Z,2.37
2022-08-19T15:01:32.458Z,2.80
2022-08-19T15:04:37.460Z,2.80
2022-08-19T15:07:40.561Z,2.60
2022-08-19T15:10:43.068Z,2.70
2022-08-19T15:13:47.393Z,2.60
2022-08-19T15:16:50.019Z,2.20
2022-08-19T15:19:52.638Z,2.45
2022-08-19T15:22:56.080Z,2.55
2022-08-19T15:25:58.509Z,2.50
2022-08-19T15:29:02.455Z,2.37
2022-08-19T15:32:07.437Z,2.72
2022-08-19T15:35:09.875Z,2.50
2022-08-19T15:38:13.881Z,1.92
2022-08-19T15:41:26.085Z,2.75
2022-08-19T15:44:28.279Z,2.42
2022-08-19T15:47:34.551Z,2.80
2022-08-19T15:50:39.506Z,2.35
2022-08-19T15:53:43.143Z,2.95
2022-08-19T15:57:04.041Z,2.70
2022-08-19T16:00:27.503Z,2.62
2022-08-19T16:03:48.513Z,3.15
2022-08-19T16:06:55.030Z,2.80
2022-08-19T16:09:57.845Z,2.58
2022-08-19T16:13:21.167Z,2.60
2022-08-19T16:16:33.581Z,2.85
2022-08-19T16:19:36.174Z,2.92
2022-08-19T16:22:39.778Z,3.28
2022-08-19T16:25:42.086Z,2.65
2022-08-19T16:28:45.362Z,2.15
2022-08-19T16:31:50.867Z,2.70
2022-08-19T16:34:53.697Z,3.28
2022-08-19T16:37:56.001Z,2.45
2022-08-19T16:41:00.581Z,2.47
2022-08-19T16:44:03.103Z,2.50
2022-08-19T16:47:05.716Z,3.50
2022-08-19T16:50:08.217Z,2.85
2022-08-19T16:53:10.748Z,3.35
2022-08-19T16:56:13.113Z,2.83
2022-08-19T16:59:16.773Z,2.97
2022-08-19T17:02:22.461Z,3.10
2022-08-19T17:05:24.966Z,3.30
2022-08-19T17:08:27.117Z,3.72
2022-08-19T17:11:31.559Z,2.95
2022-08-19T17:14:34.251Z,3.53
2022-08-19T17:17:37.311Z,3.37
2022-08-19T17:20:41.491Z,2.90
2022-08-19T17:23:44.305Z,3.60
2022-08-19T17:26:46.600Z,3.25
2022-08-19T17:29:49.260Z,2.83
2022-08-19T17:32:51.847Z,2.40
2022-08-19T17:35:56.519Z,2.67
2022-08-19T17:39:01.040Z,3.30
2022-08-19T17:42:03.683Z,2.67
2022-08-19T17:45:09.651Z,2.70
2022-08-19T17:48:15.502Z,2.55
2022-08-19T17:51:24.043Z,2.50
2022-08-19T17:54:33.270Z,2.92
2022-08-19T17:57:37.958Z,3.35
2022-08-19T18:00:54.073Z,3.60
2022-08-19T18:04:01.737Z,3.42
2022-08-19T18:07:04.377Z,2.70
2022-08-19T18:10:07.627Z,2.53
2022-08-19T18:13:17.199Z,3.12
2022-08-19T18:16:22.100Z,3.15
2022-08-19T18:19:25.407Z,2.62
2022-08-19T18:22:36.556Z,2.58
2022-08-19T18:25:42.011Z,2.47
2022-08-19T18:28:49.770Z,2.55
2022-08-19T18:31:57.773Z,2.92
2022-08-19T18:35:11.639Z,3.70
2022-08-19T18:38:34.332Z,2.83
2022-08-19T18:41:55.557Z,3.33
2022-08-19T18:45:16.255Z,3.08
2022-08-19T18:48:37.786Z,2.95
2022-08-19T18:51:40.342Z,3.53
2022-08-19T18:54:48.055Z,5.57
2022-08-19T18:57:51.408Z,4.50
2022-08-19T19:00:56.880Z,4.28
2022-08-19T19:04:02.915Z,4.82
2022-08-19T19:07:06.341Z,4.87
2022-08-19T19:10:08.900Z,3.97
2022-08-19T19:13:16.284Z,4.87
2022-08-19T19:16:21.241Z,5.03
2022-08-19T19:19:26.771Z,5.25
2022-08-19T19:22:28.917Z,4.90
2022-08-19T19:25:50.423Z,3.87
2022-08-19T19:28:54.833Z,4.12
2022-08-19T19:31:57.286Z,4.82
2022-08-19T19:34:59.636Z,5.45
2022-08-19T19:38:02.099Z,5.28
2022-08-19T19:41:05.211Z,4.87
2022-08-19T19:44:30.344Z,5.45
2022-08-19T19:47:33.304Z,4.70
2022-08-19T19:50:35.847Z,4.75
2022-08-19T19:53:38.664Z,5.20
2022-08-19T19:56:50.307Z,3.97
2022-08-19T19:59:52.559Z,4.65
2022-08-19T20:02:56.116Z,4.35
2022-08-19T20:05:59.329Z,4.90
2022-08-19T20:09:08.079Z,4.30
2022-08-19T20:12:10.690Z,4.68
2022-08-19T20:15:14.777Z,5.05
2022-08-19T20:18:17.255Z,5.97
2022-08-19T20:21:21.086Z,6.43
2022-08-19T20:24:30.762Z,6.62
2022-08-19T20:27:37.164Z,7.28
2022-08-19T20:30:46.489Z,6.85
2022-08-19T20:33:50.621Z,6.50
2022-08-19T20:36:53.143Z,6.93
2022-08-19T20:39:55.503Z,6.97
2022-08-19T20:42:58.086Z,6.90
2022-08-19T20:46:02.555Z,7.82
2022-08-19T20:49:05.890Z,7.65
2022-08-19T20:52:08.279Z,7.50
2022-08-19T20:55:12.108Z,7.18
2022-08-19T20:58:14.424Z,7.18
2022-08-19T21:01:18.503Z,8.15
2022-08-19T21:04:21.805Z,7.70
2022-08-19T21:07:24.486Z,7.95
2022-08-19T21:10:42.459Z,7.50
2022-08-19T21:13:45.219Z,7.78
2022-08-19T21:16:47.435Z,8.13
2022-08-19T21:19:49.887Z,8.27
2022-08-19T21:22:52.053Z,7.72
2022-08-19T21:25:57.058Z,6.68
2022-08-19T21:28:59.259Z,7.87
2022-08-19T21:32:01.728Z,6.95
2022-08-19T21:35:05.357Z,6.62
2022-08-19T21:38:07.872Z,7.12
2022-08-19T21:41:10.167Z,6.55
2022-08-19T21:44:12.714Z,7.37
2022-08-19T21:47:15.219Z,7.32
2022-08-19T21:50:17.940Z,6.95
2022-08-19T21:53:22.768Z,6.32
2022-08-19T21:56:25.585Z,6.12
2022-08-19T21:59:27.735Z,6.55
2022-08-19T22:02:31.049Z,6.45
2022-08-19T22:05:34.419Z,6.97
2022-08-19T22:08:36.619Z,5.87
2022-08-19T22:11:39.872Z,6.53
2022-08-19T22:14:42.039Z,6.28
2022-08-19T22:17:45.156Z,6.10
2022-08-19T22:20:47.999Z,7.03
2022-08-19T22:23:50.444Z,7.12
2022-08-19T22:26:52.603Z,6.30
2022-08-19T22:29:55.448Z,6.62
2022-08-19T22:33:02.637Z,6.40
2022-08-19T22:36:07.664Z,6.75
2022-08-19T22:39:09.913Z,6.93
2022-08-19T22:42:12.437Z,6.53
2022-08-19T22:45:16.987Z,6.75
2022-08-19T22:48:21.702Z,7.12
2022-08-19T22:51:42.496Z,6.90
2022-08-19T22:54:47.730Z,6.78
2022-08-19T22:57:49.997Z,6.47
2022-08-19T23:00:52.793Z,6.30
2022-08-19T23:03:56.538Z,6.90
2022-08-19T23:06:59.101Z,7.43
2022-08-19T23:10:03.620Z,7.25
2022-08-19T23:13:07.199Z,6.75
2022-08-19T23:16:09.449Z,6.75
2022-08-19T23:19:12.123Z,7.30
2022-08-19T23:22:17.815Z,6.80
2022-08-19T23:25:25.141Z,6.00
2022-08-19T23:28:45.966Z,5.75
2022-08-19T23:31:49.819Z,6.37
2022-08-19T23:34:54.748Z,7.28
2022-08-19T23:37:57.514Z,5.78
2022-08-19T23:41:03.746Z,5.37
2022-08-19T23:44:06.606Z,6.00
2022-08-19T23:47:17.330Z,7.90
2022-08-19T23:50:21.898Z,7.45
2022-08-19T23:53:25.359Z,8.02
2022-08-19T23:56:27.864Z,7.75
2022-08-19T23:59:30.041Z,7.60
